createdAt,value
2023-01-29T00:00:22.121Z,26.80
2023-01-29T00:02:49.121Z,50.15
2023-01-29T00:05:27.456Z,35.85
2023-01-29T00:07:56.341Z,28.03
2023-01-29T00:10:25.068Z,29.00
2023-01-29T00:12:51.930Z,29.55
2023-01-29T00:15:19.052Z,29.20
2023-01-29T00:17:45.861Z,28.48
2023-01-29T00:20:13.426Z,28.47
2023-01-29T00:22:40.252Z,28.90
2023-01-29T00:25:07.812Z,28.85
2023-01-29T00:27:34.502Z,27.88
2023-01-29T00:30:12.777Z,25.60
2023-01-29T00:32:42.821Z,26.40
2023-01-29T00:35:09.807Z,27.55
2023-01-29T00:37:36.517Z,25.58
2023-01-29T00:40:04.520Z,26.83
2023-01-29T00:42:49.730Z,27.13
2023-01-29T00:45:16.538Z,25.03
2023-01-29T00:47:43.471Z,28.45
2023-01-29T00:50:12.228Z,27.52
2023-01-29T00:52:41.084Z,25.67
2023-01-29T00:55:09.703Z,27.50
2023-01-29T00:57:38.222Z,26.53
2023-01-29T01:00:08.665Z,26.08
2023-01-29T01:02:54.109Z,25.98
2023-01-29T01:05:21.084Z,24.38
2023-01-29T01:07:49.919Z,25.33
2023-01-29T01:10:24.290Z,27.40
2023-01-29T01:13:05.698Z,25.63
2023-01-29T01:15:36.025Z,26.02
2023-01-29T01:18:03.006Z,27.15
2023-01-29T01:20:31.517Z,26.27
2023-01-29T01:22:58.453Z,27.33
2023-01-29T01:25:26.799Z,29.35
2023-01-29T01:27:55.190Z,27.52
2023-01-29T01:30:23.152Z,26.27
2023-01-29T01:32:50.057Z,26.92
2023-01-29T01:35:16.989Z,25.00
2023-01-29T01:37:43.747Z,26.40
2023-01-29T01:40:18.631Z,28.00
2023-01-29T01:42:49.415Z,25.13
2023-01-29T01:45:27.690Z,30.00
2023-01-29T01:48:23.643Z,25.83
2023-01-29T01:51:04.552Z,29.38
2023-01-29T01:53:31.427Z,26.73
2023-01-29T01:56:03.606Z,27.52
2023-01-29T01:58:43.917Z,29.10
2023-01-29T02:01:12.306Z,28.60
2023-01-29T02:04:10.296Z,28.48
2023-01-29T02:06:59.270Z,29.88
2023-01-29T02:09:38.805Z,31.15
2023-01-29T02:12:08.498Z,30.63
2023-01-29T02:14:39.567Z,28.33
2023-01-29T02:17:08.857Z,32.42
2023-01-29T02:19:52.658Z,33.08
2023-01-29T02:23:05.819Z,32.53
2023-01-29T02:26:05.752Z,32.58
2023-01-29T02:29:22.200Z,31.40
2023-01-29T02:32:14.603Z,34.10
2023-01-29T02:35:19.135Z,33.63
2023-01-29T02:38:03.051Z,34.28
2023-01-29T02:40:38.319Z,33.60
2023-01-29T02:43:16.099Z,31.57
2023-01-29T02:45:48.294Z,34.47
2023-01-29T02:48:20.228Z,32.17
2023-01-29T02:51:03.487Z,34.47
2023-01-29T02:53:36.645Z,31.73
2023-01-29T02:56:17.554Z,33.90
2023-01-29T02:58:56.764Z,35.20
2023-01-29T03:01:45.004Z,36.58
2023-01-29T03:04:17.455Z,34.22
2023-01-29T03:06:54.278Z,33.00
2023-01-29T03:09:36.289Z,33.03
2023-01-29T03:12:28.500Z,31.98
2023-01-29T03:15:14.210Z,31.30
2023-01-29T03:18:01.557Z,31.92
2023-01-29T03:20:35.390Z,33.00
2023-01-29T03:23:08.125Z,32.30
2023-01-29T03:25:54.722Z,35.38
2023-01-29T03:28:42.142Z,37.30
2023-01-29T03:31:32.463Z,34.22
2023-01-29T03:34:09.992Z,34.85
2023-01-29T03:36:45.505Z,32.97
2023-01-29T03:39:14.755Z,33.70
2023-01-29T03:42:09.569Z,34.38
2023-01-29T03:45:00.387Z,35.45
2023-01-29T03:47:54.466Z,32.25
2023-01-29T03:50:46.123Z,35.97
2023-01-29T03:53:24.871Z,34.42
2023-01-29T03:56:36.150Z,34.42
2023-01-29T03:59:12.022Z,33.08
2023-01-29T04:01:48.873Z,33.72
2023-01-29T04:04:27.968Z,32.63
2023-01-29T04:07:01.694Z,34.58
2023-01-29T04:09:37.903Z,32.05
2023-01-29T04:12:09.869Z,32.70
2023-01-29T04:14:38.093Z,34.55
2023-01-29T04:17:18.777Z,31.80
2023-01-29T04:19:45.634Z,32.30
2023-01-29T04:22:21.546Z,37.80
2023-01-29T04:24:50.210Z,34.85
2023-01-29T04:27:43.161Z,31.70
2023-01-29T04:30:25.075Z,34.13
2023-01-29T04:33:29.309Z,32.42
2023-01-29T04:36:08.374Z,32.67
2023-01-29T04:38:42.076Z,33.97
2023-01-29T04:41:32.738Z,33.97
2023-01-29T04:44:10.887Z,32.47
2023-01-29T04:47:06.106Z,36.70
2023-01-29T04:49:47.130Z,34.83
2023-01-29T04:52:52.924Z,36.13
2023-01-29T04:55:25.577Z,34.30
2023-01-29T04:58:10.281Z,37.37
2023-01-29T05:00:45.177Z,34.40
2023-01-29T05:03:14.633Z,35.78
2023-01-29T05:05:44.609Z,35.88
2023-01-29T05:08:15.724Z,36.80
2023-01-29T05:10:42.873Z,35.77
2023-01-29T05:13:13.904Z,35.22
2023-01-29T05:15:52.210Z,33.90
2023-01-29T05:18:19.260Z,38.42
2023-01-29T05:20:47.700Z,36.95
2023-01-29T05:23:18.853Z,38.07
2023-01-29T05:25:46.810Z,33.92
2023-01-29T05:28:16.848Z,34.97
2023-01-29T05:30:48.698Z,36.70
2023-01-29T05:33:22.996Z,37.63
2023-01-29T05:35:50.399Z,39.43
2023-01-29T05:38:19.052Z,36.88
2023-01-29T05:40:45.833Z,38.40
2023-01-29T05:43:16.522Z,38.22
2023-01-29T05:45:43.850Z,37.67
2023-01-29T05:48:10.646Z,35.60
2023-01-29T05:50:37.569Z,35.25
2023-01-29T05:53:05.648Z,41.63
2023-01-29T05:55:32.415Z,35.05
2023-01-29T05:57:59.262Z,37.88
2023-01-29T06:00:26.150Z,37.60
2023-01-29T06:02:53.348Z,37.47
2023-01-29T06:05:20.130Z,35.30
2023-01-29T06:07:47.249Z,35.47
2023-01-29T06:10:33.399Z,34.97
2023-01-29T06:13:10.053Z,37.67
2023-01-29T06:15:40.110Z,36.70
2023-01-29T06:18:06.902Z,34.45
2023-01-29T06:20:33.933Z,34.40
2023-01-29T06:23:00.782Z,33.72
2023-01-29T06:25:27.591Z,31.07
2023-01-29T06:27:54.350Z,35.45
2023-01-29T06:30:21.108Z,37.17
2023-01-29T06:32:47.832Z,34.22
2023-01-29T06:35:14.564Z,34.13
2023-01-29T06:37:41.443Z,37.23
2023-01-29T06:40:10.038Z,34.72
2023-01-29T06:42:36.815Z,33.17
2023-01-29T06:45:05.117Z,33.15
2023-01-29T06:47:31.873Z,32.13
2023-01-29T06:49:58.753Z,33.50
2023-01-29T06:52:28.943Z,31.88
2023-01-29T06:54:56.469Z,32.83
2023-01-29T06:57:23.718Z,33.50
2023-01-29T06:59:50.645Z,33.83
2023-01-29T07:02:17.576Z,31.87
2023-01-29T07:04:44.390Z,31.73
2023-01-29T07:07:13.292Z,32.83
2023-01-29T07:09:41.034Z,33.25
2023-01-29T07:12:15.378Z,32.00
2023-01-29T07:14:42.197Z,31.73
2023-01-29T07:17:08.916Z,29.35
2023-01-29T07:19:35.616Z,31.30
2023-01-29T07:22:03.926Z,33.90
2023-01-29T07:24:30.962Z,31.95
2023-01-29T07:26:58.058Z,33.20
2023-01-29T07:29:24.814Z,34.20
2023-01-29T07:31:51.670Z,29.63
2023-01-29T07:34:18.558Z,33.78
2023-01-29T07:36:45.362Z,33.28
2023-01-29T07:39:12.159Z,33.30
2023-01-29T07:44:55.979Z,32.53
2023-01-29T07:44:58.815Z,31.00
2023-01-29T08:01:54.265Z,30.35
2023-01-29T08:04:21.050Z,30.38
2023-01-29T08:29:36.884Z,30.77
2023-01-29T08:32:06.579Z,30.25
2023-01-29T08:34:37.933Z,27.80
2023-01-29T08:37:08.776Z,29.05
2023-01-29T08:40:03.478Z,29.63
2023-01-29T08:54:01.543Z,28.23
2023-01-29T08:56:49.151Z,29.77
2023-01-29T08:59:33.799Z,31.40
2023-01-29T09:05:41.330Z,27.97
2023-01-29T09:15:52.461Z,26.77
2023-01-29T09:21:26.995Z,26.73
2023-01-29T09:23:53.856Z,29.35
2023-01-29T09:26:36.175Z,30.20
2023-01-29T09:29:03.138Z,25.83
2023-01-29T09:31:35.615Z,28.90
2023-01-29T09:34:05.726Z,29.87
2023-01-29T09:36:38.095Z,28.73
2023-01-29T09:39:20.487Z,29.10
2023-01-29T09:45:36.017Z,29.10
2023-01-29T09:52:07.216Z,31.10
2023-01-29T09:55:18.745Z,30.13
2023-01-29T09:58:02.921Z,30.35
2023-01-29T10:01:05.184Z,31.45
2023-01-29T10:03:50.679Z,32.00
2023-01-29T10:06:56.461Z,29.17
2023-01-29T15:03:01.871Z,26.17
2023-01-29T15:05:40.853Z,25.10
2023-01-29T15:08:47.318Z,25.98
2023-01-29T15:11:41.703Z,30.25
2023-01-29T15:14:32.907Z,28.08
2023-01-29T15:17:36.477Z,29.58
2023-01-29T15:20:51.243Z,24.93
2023-01-29T15:23:36.515Z,26.27
2023-01-29T15:26:16.376Z,29.38
2023-01-29T15:29:05.094Z,28.92
2023-01-29T15:34:40.985Z,28.30
2023-01-29T15:53:11.609Z,24.47
2023-01-29T16:07:03.934Z,28.15
2023-01-29T16:09:46.043Z,30.17
2023-01-29T16:12:19.758Z,34.47
2023-01-29T16:14:54.638Z,29.17
2023-01-29T16:20:42.971Z,31.65
2023-01-29T16:23:47.931Z,30.90
2023-01-29T16:26:55.459Z,32.60
2023-01-29T18:17:13.229Z,36.08
2023-01-29T19:48:18.107Z,29.08
2023-01-29T19:50:51.404Z,33.58
2023-01-29T19:53:18.381Z,36.33
2023-01-29T19:56:07.974Z,40.73
2023-01-29T19:58:35.341Z,36.53
2023-01-29T20:01:05.871Z,26.10
2023-01-29T20:03:33.003Z,33.40
2023-01-29T20:06:05.386Z,40.60
2023-01-29T20:08:33.341Z,34.53
2023-01-29T20:11:00.120Z,33.92
2023-01-29T20:13:26.960Z,36.83
2023-01-29T20:15:53.926Z,33.38
2023-01-29T20:18:20.982Z,36.53
2023-01-29T20:20:50.402Z,36.53
2023-01-29T20:23:31.842Z,39.28
2023-01-29T20:26:04.745Z,39.25
2023-01-29T20:28:31.611Z,32.85
2023-01-29T20:30:59.091Z,46.00
2023-01-29T20:33:26.250Z,35.70
2023-01-29T20:36:00.143Z,39.33
2023-01-29T20:38:30.520Z,33.47
2023-01-29T20:41:07.515Z,32.95
2023-01-29T20:43:34.840Z,34.10
2023-01-29T20:46:02.911Z,39.77
2023-01-29T20:48:30.891Z,39.53
2023-01-29T20:51:02.862Z,34.97
2023-01-29T20:53:29.660Z,35.50
2023-01-29T20:55:56.478Z,36.17
2023-01-29T20:58:23.295Z,37.87
2023-01-29T21:00:50.118Z,42.90
2023-01-29T21:03:35.402Z,38.20
2023-01-29T21:06:02.311Z,35.72
2023-01-29T21:08:29.084Z,36.90
2023-01-29T21:10:57.975Z,40.33
2023-01-29T21:13:26.877Z,40.42
2023-01-29T21:15:53.875Z,41.10
2023-01-29T21:18:20.636Z,37.17
2023-01-29T21:20:49.981Z,37.03
2023-01-29T21:23:16.861Z,36.63
2023-01-29T21:25:45.088Z,41.03
2023-01-29T21:28:12.353Z,39.67
2023-01-29T21:30:46.468Z,39.03
2023-01-29T21:33:14.315Z,34.92
2023-01-29T21:35:41.136Z,34.53
2023-01-29T21:38:07.859Z,36.92
2023-01-29T21:40:34.597Z,35.05
2023-01-29T21:43:13.253Z,42.00
2023-01-29T21:45:41.082Z,43.88
2023-01-29T21:48:11.503Z,40.57
2023-01-29T21:50:38.753Z,40.35
2023-01-29T21:53:05.649Z,42.55
2023-01-29T21:55:32.872Z,39.53
2023-01-29T21:58:00.342Z,42.63
2023-01-29T22:00:27.312Z,39.80
2023-01-29T22:02:54.145Z,43.03
2023-01-29T22:05:20.975Z,40.97
2023-01-29T22:07:48.723Z,41.90
2023-01-29T22:10:18.049Z,36.97
2023-01-29T22:12:45.365Z,38.33
2023-01-29T22:15:13.025Z,40.63
2023-01-29T22:17:41.421Z,39.13
2023-01-29T22:20:13.116Z,39.67
2023-01-29T22:22:39.903Z,36.63
2023-01-29T22:25:07.014Z,35.87
2023-01-29T22:27:34.332Z,36.65
2023-01-29T22:30:01.207Z,29.92
2023-01-29T22:32:29.054Z,35.95
2023-01-29T22:34:55.854Z,35.60
2023-01-29T22:37:22.658Z,30.77
2023-01-29T22:39:49.414Z,34.15
2023-01-29T22:42:19.439Z,31.60
2023-01-29T22:44:46.172Z,33.92
2023-01-29T22:47:12.850Z,36.90
2023-01-29T22:49:39.612Z,35.10
2023-01-29T22:52:12.252Z,34.65
2023-01-29T22:54:41.226Z,33.45
2023-01-29T22:57:12.502Z,30.25
2023-01-29T22:59:39.675Z,37.58
2023-01-29T23:02:07.712Z,32.53
2023-01-29T23:04:34.631Z,32.00
2023-01-29T23:07:01.411Z,32.90
2023-01-29T23:09:28.324Z,31.83
2023-01-29T23:11:55.016Z,32.25
2023-01-29T23:14:21.800Z,35.23
2023-01-29T23:16:48.546Z,32.85
2023-01-29T23:19:15.383Z,28.98
2023-01-29T23:21:42.162Z,36.83
2023-01-29T23:24:09.647Z,29.88
2023-01-29T23:26:54.826Z,29.60
2023-01-29T23:43:06.104Z,24.48
2023-01-29T23:46:00.531Z,26.02
